aviador You're here:

CYXS Decoded Metar

PRINCE GEORGE in BC, CANADA
Report Time2018-01-19 10:00:00
UTC Time2018-01-19 11:09:15
Flight Rules Old
Wind180° at 08 kt
W.Decomp.*RWY 15: 7.9 kt HW 1.3 kt RCW
RWY 19: 6.9 kt HW 4.1 kt LCW
RWY 24: 1.3 kt HW 7.9 kt LCW
W.Rank180° ranks 1
Current wind is below 180° avg. (8.7)
Visibility9999 m
Phenomena:N/A
Clouds:Overcast 075 Hf
Expected CloudBase > 2,400 ft AGL from Temp-Dew spread
Ceiling7,500 ft
Temp02°C (ISA -9)
Dew Point-4°C (65% RH)
AAT-3.4°C
QNH999 hPa
Density Alt1,788 ft
Elevation2,267 ft
Report Wrong Elevation
Raw Report
CYXS 191000Z AUTO 18008KT 9SM OVC075 02/M04 A2951 RMK SLP019=

Extra information for CYXS:More info

Metar Taf Metar & Taf Last 4 Metars F.Rules Stats Wind Profile Meteogram Temp Stats Airport Information Weather charts Add Link Nearby VenuesMetar ALERT Operation Metar Decoded Social comments